sensor_id;sensor_type;location;lat;lon;timestamp;pressure;altitude;pressure_sealevel;temperature;humidity
76448;BME280;65284;51.040;13.722;2023-08-12T00:01:51;100273.56;;;19.27;75.80
76448;BME280;65284;51.040;13.722;2023-08-12T00:04:17;100275.84;;;19.30;75.06
76448;BME280;65284;51.040;13.722;2023-08-12T00:06:44;100272.53;;;19.28;75.60
76448;BME280;65284;51.040;13.722;2023-08-12T00:09:11;100274.63;;;19.26;75.00
76448;BME280;65284;51.040;13.722;2023-08-12T00:11:41;100286.41;;;19.25;75.25
76448;BME280;65284;51.040;13.722;2023-08-12T00:14:08;100283.97;;;19.17;75.72
76448;BME280;65284;51.040;13.722;2023-08-12T00:16:34;100275.03;;;19.23;75.96
76448;BME280;65284;51.040;13.722;2023-08-12T00:19:01;100274.63;;;19.13;75.56
76448;BME280;65284;51.040;13.722;2023-08-12T00:21:27;100278.38;;;18.98;76.02
76448;BME280;65284;51.040;13.722;2023-08-12T00:23:54;100268.63;;;19.10;75.69
76448;BME280;65284;51.040;13.722;2023-08-12T00:26:20;100276.94;;;19.09;76.65
76448;BME280;65284;51.040;13.722;2023-08-12T00:28:49;100276.31;;;19.07;77.15
76448;BME280;65284;51.040;13.722;2023-08-12T00:31:16;100273.41;;;19.08;76.14
76448;BME280;65284;51.040;13.722;2023-08-12T00:33:42;100273.41;;;19.08;76.05
76448;BME280;65284;51.040;13.722;2023-08-12T00:36:09;100271.78;;;18.94;76.29
76448;BME280;65284;51.040;13.722;2023-08-12T00:38:35;100264.94;;;18.98;76.06
76448;BME280;65284;51.040;13.722;2023-08-12T00:41:03;100276.13;;;18.95;76.21
76448;BME280;65284;51.040;13.722;2023-08-12T00:43:29;100271.78;;;18.94;76.36
76448;BME280;65284;51.040;13.722;2023-08-12T00:45:56;100259.78;;;18.97;76.17
76448;BME280;65284;51.040;13.722;2023-08-12T00:48:22;100261.84;;;18.88;76.71
76448;BME280;65284;51.040;13.722;2023-08-12T00:50:49;100261.84;;;18.88;77.38
76448;BME280;65284;51.040;13.722;2023-08-12T00:53:16;100263.28;;;18.84;76.21
76448;BME280;65284;51.040;13.722;2023-08-12T00:55:43;100255.00;;;18.92;76.38
76448;BME280;65284;51.040;13.722;2023-08-12T00:58:10;100262.03;;;18.86;76.51
76448;BME280;65284;51.040;13.722;2023-08-12T01:00:37;100259.78;;;18.90;76.42
76448;BME280;65284;51.040;13.722;2023-08-12T01:03:04;100262.66;;;18.95;76.04
76448;BME280;65284;51.040;13.722;2023-08-12T01:05:32;100253.34;;;18.91;75.96
76448;BME280;65284;51.040;13.722;2023-08-12T01:07:59;100261.84;;;18.88;76.34
76448;BME280;65284;51.040;13.722;2023-08-12T01:10:33;100258.94;;;18.96;75.99
76448;BME280;65284;51.040;13.722;2023-08-12T01:15:30;100252.31;;;18.85;77.01
76448;BME280;65284;51.040;13.722;2023-08-12T01:17:58;100257.31;;;18.82;76.42
76448;BME280;65284;51.040;13.722;2023-08-12T01:20:27;100258.13;;;18.89;77.09
76448;BME280;65284;51.040;13.722;2023-08-12T01:23:07;100262.28;;;18.85;76.81
76448;BME280;65284;51.040;13.722;2023-08-12T01:25:34;100254.78;;;18.87;75.87
76448;BME280;65284;51.040;13.722;2023-08-12T01:28:00;100254.00;;;18.93;75.86
76448;BME280;65284;51.040;13.722;2023-08-12T01:30:27;100251.50;;;18.85;76.07
76448;BME280;65284;51.040;13.722;2023-08-12T01:33:00;100248.19;;;18.83;76.62
76448;BME280;65284;51.040;13.722;2023-08-12T01:35:35;100259.78;;;18.90;76.26
76448;BME280;65284;51.040;13.722;2023-08-12T01:38:05;100253.16;;;18.99;75.64
76448;BME280;65284;51.040;13.722;2023-08-12T01:40:33;100255.22;;;18.91;75.71
76448;BME280;65284;51.040;13.722;2023-08-12T01:43:00;100245.72;;;18.88;75.46
76448;BME280;65284;51.040;13.722;2023-08-12T01:45:27;100244.88;;;18.81;76.14
76448;BME280;65284;51.040;13.722;2023-08-12T01:47:56;100248.81;;;18.85;76.42
76448;BME280;65284;51.040;13.722;2023-08-12T01:50:22;100239.47;;;18.81;75.77
76448;BME280;65284;51.040;13.722;2023-08-12T01:52:49;100237.22;;;18.78;75.90
76448;BME280;65284;51.040;13.722;2023-08-12T01:55:15;100225.44;;;18.79;75.77
76448;BME280;65284;51.040;13.722;2023-08-12T01:57:42;100225.63;;;18.77;75.84
76448;BME280;65284;51.040;13.722;2023-08-12T02:00:09;100227.72;;;18.82;76.08
76448;BME280;65284;51.040;13.722;2023-08-12T02:02:35;100236.78;;;18.81;75.42
76448;BME280;65284;51.040;13.722;2023-08-12T02:05:02;100231.63;;;18.86;75.95
76448;BME280;65284;51.040;13.722;2023-08-12T02:07:29;100229.16;;;18.84;75.72
76448;BME280;65284;51.040;13.722;2023-08-12T02:09:55;100221.69;;;18.80;75.52
76448;BME280;65284;51.040;13.722;2023-08-12T02:12:22;100213.81;;;18.72;75.75
76448;BME280;65284;51.040;13.722;2023-08-12T02:14:48;100213.22;;;18.70;75.82
76448;BME280;65284;51.040;13.722;2023-08-12T02:17:15;100215.50;;;18.79;75.53
76448;BME280;65284;51.040;13.722;2023-08-12T02:19:41;100216.50;;;18.72;75.51
76448;BME280;65284;51.040;13.722;2023-08-12T02:22:07;100214.22;;;18.69;75.11
76448;BME280;65284;51.040;13.722;2023-08-12T02:24:34;100211.34;;;18.63;76.31
76448;BME280;65284;51.040;13.722;2023-08-12T02:27:00;100208.84;;;18.69;75.49
76448;BME280;65284;51.040;13.722;2023-08-12T02:29:27;100195.81;;;18.65;75.39
76448;BME280;65284;51.040;13.722;2023-08-12T02:31:53;100196.84;;;18.64;75.75
76448;BME280;65284;51.040;13.722;2023-08-12T02:34:19;100201.41;;;18.57;76.23
76448;BME280;65284;51.040;13.722;2023-08-12T02:36:46;100190.66;;;18.51;76.22
76448;BME280;65284;51.040;13.722;2023-08-12T02:39:12;100186.94;;;18.52;76.32
76448;BME280;65284;51.040;13.722;2023-08-12T02:41:39;100183.22;;;18.46;76.41
76448;BME280;65284;51.040;13.722;2023-08-12T02:44:05;100186.94;;;18.45;76.16
76448;BME280;65284;51.040;13.722;2023-08-12T02:46:32;100181.56;;;18.45;76.40
76448;BME280;65284;51.040;13.722;2023-08-12T02:48:58;100175.75;;;18.41;76.48
76448;BME280;65284;51.040;13.722;2023-08-12T02:51:25;100186.53;;;18.41;76.06
76448;BME280;65284;51.040;13.722;2023-08-12T02:53:51;100175.38;;;18.38;76.43
76448;BME280;65284;51.040;13.722;2023-08-12T02:56:18;100186.13;;;18.38;76.71
76448;BME280;65284;51.040;13.722;2023-08-12T02:58:44;100180.34;;;18.34;76.84
76448;BME280;65284;51.040;13.722;2023-08-12T03:01:11;100179.50;;;18.34;76.36
76448;BME280;65284;51.040;13.722;2023-08-12T03:03:37;100175.97;;;18.27;76.76
76448;BME280;65284;51.040;13.722;2023-08-12T03:06:04;100180.94;;;18.23;76.90
76448;BME280;65284;51.040;13.722;2023-08-12T03:08:31;100173.50;;;18.32;76.69
76448;BME280;65284;51.040;13.722;2023-08-12T03:11:01;100179.09;;;18.24;77.42
76448;BME280;65284;51.040;13.722;2023-08-12T03:13:28;100177.84;;;18.19;77.18
76448;BME280;65284;51.040;13.722;2023-08-12T03:15:54;100181.16;;;18.22;77.08
76448;BME280;65284;51.040;13.722;2023-08-12T03:18:21;100174.31;;;18.32;76.69
76448;BME280;65284;51.040;13.722;2023-08-12T03:20:48;100182.19;;;18.27;76.54
76448;BME280;65284;51.040;13.722;2023-08-12T03:23:15;100184.47;;;18.24;77.16
76448;BME280;65284;51.040;13.722;2023-08-12T03:25:42;100183.84;;;18.28;76.26
76448;BME280;65284;51.040;13.722;2023-08-12T03:28:08;100172.88;;;18.30;76.62
76448;BME280;65284;51.040;13.722;2023-08-12T03:30:34;100174.13;;;18.21;76.68
76448;BME280;65284;51.040;13.722;2023-08-12T03:33:01;100175.97;;;18.27;76.73
76448;BME280;65284;51.040;13.722;2023-08-12T03:35:27;100173.50;;;18.12;76.94
76448;BME280;65284;51.040;13.722;2023-08-12T03:37:54;100171.25;;;18.22;76.80
76448;BME280;65284;51.040;13.722;2023-08-12T03:40:20;100172.03;;;18.16;77.01
76448;BME280;65284;51.040;13.722;2023-08-12T03:42:47;100162.75;;;18.12;76.91
76448;BME280;65284;51.040;13.722;2023-08-12T03:45:13;100164.63;;;18.11;77.30
76448;BME280;65284;51.040;13.722;2023-08-12T03:47:40;100156.75;;;18.16;76.91
76448;BME280;65284;51.040;13.722;2023-08-12T03:50:06;100159.44;;;18.16;76.92
76448;BME280;65284;51.040;13.722;2023-08-12T03:52:33;100165.03;;;18.08;77.30
76448;BME280;65284;51.040;13.722;2023-08-12T03:54:59;100158.00;;;18.14;76.89
76448;BME280;65284;51.040;13.722;2023-08-12T03:57:26;100162.75;;;18.12;77.22
76448;BME280;65284;51.040;13.722;2023-08-12T03:59:52;100165.44;;;18.12;77.12
76448;BME280;65284;51.040;13.722;2023-08-12T04:02:19;100158.81;;;18.14;76.56
76448;BME280;65284;51.040;13.722;2023-08-12T04:04:45;100162.75;;;18.12;76.74
76448;BME280;65284;51.040;13.722;2023-08-12T04:07:12;100161.28;;;18.09;76.95
76448;BME280;65284;51.040;13.722;2023-08-12T04:09:39;100159.25;;;18.11;76.92
76448;BME280;65284;51.040;13.722;2023-08-12T04:12:05;100162.75;;;18.05;76.65
76448;BME280;65284;51.040;13.722;2023-08-12T04:14:32;100156.31;;;18.13;76.76
76448;BME280;65284;51.040;13.722;2023-08-12T04:16:58;100162.94;;;18.04;76.96
76448;BME280;65284;51.040;13.722;2023-08-12T04:19:25;100158.00;;;18.07;76.88
76448;BME280;65284;51.040;13.722;2023-08-12T04:21:51;100154.25;;;18.15;76.50
76448;BME280;65284;51.040;13.722;2023-08-12T04:24:18;100154.69;;;18.12;76.86
76448;BME280;65284;51.040;13.722;2023-08-12T04:26:44;100159.44;;;18.16;76.65
76448;BME280;65284;51.040;13.722;2023-08-12T04:29:11;100157.56;;;18.24;76.08
76448;BME280;65284;51.040;13.722;2023-08-12T04:31:37;100162.34;;;18.15;76.30
76448;BME280;65284;51.040;13.722;2023-08-12T04:34:04;100152.63;;;18.21;75.96
76448;BME280;65284;51.040;13.722;2023-08-12T04:36:30;100158.38;;;18.31;75.60
76448;BME280;65284;51.040;13.722;2023-08-12T04:38:57;100156.72;;;18.36;75.60
76448;BME280;65284;51.040;13.722;2023-08-12T04:41:23;100156.72;;;18.36;75.53
76448;BME280;65284;51.040;13.722;2023-08-12T04:43:50;100156.75;;;18.43;75.01
76448;BME280;65284;51.040;13.722;2023-08-12T04:46:17;100151.97;;;18.45;75.15
76448;BME280;65284;51.040;13.722;2023-08-12T04:48:44;100152.38;;;18.42;75.62
76448;BME280;65284;51.040;13.722;2023-08-12T04:51:12;100156.53;;;18.38;75.83
76448;BME280;65284;51.040;13.722;2023-08-12T04:53:38;100159.22;;;18.38;75.92
76448;BME280;65284;51.040;13.722;2023-08-12T04:56:04;100154.69;;;18.32;76.09
76448;BME280;65284;51.040;13.722;2023-08-12T04:58:31;100156.31;;;18.33;76.13
76448;BME280;65284;51.040;13.722;2023-08-12T05:00:57;100150.53;;;18.36;76.28
76448;BME280;65284;51.040;13.722;2023-08-12T05:03:24;100152.19;;;18.30;75.90
76448;BME280;65284;51.040;13.722;2023-08-12T05:05:51;100143.94;;;18.32;76.47
76448;BME280;65284;51.040;13.722;2023-08-12T05:08:18;100150.75;;;18.34;76.19
76448;BME280;65284;51.040;13.722;2023-08-12T05:10:47;100146.81;;;18.30;76.27
76448;BME280;65284;51.040;13.722;2023-08-12T05:13:14;100154.47;;;18.40;76.00
76448;BME280;65284;51.040;13.722;2023-08-12T05:15:40;100152.81;;;18.39;76.34
76448;BME280;65284;51.040;13.722;2023-08-12T05:18:07;100155.47;;;18.46;75.87
76448;BME280;65284;51.040;13.722;2023-08-12T05:20:33;100153.44;;;18.41;76.13
76448;BME280;65284;51.040;13.722;2023-08-12T05:23:00;100147.22;;;18.47;76.19
76448;BME280;65284;51.040;13.722;2023-08-12T05:25:26;100154.22;;;18.61;75.50
76448;BME280;65284;51.040;13.722;2023-08-12T05:27:53;100144.28;;;18.69;75.13
76448;BME280;65284;51.040;13.722;2023-08-12T05:30:19;100144.69;;;18.65;75.18
76448;BME280;65284;51.040;13.722;2023-08-12T05:32:46;100144.69;;;18.65;74.82
76448;BME280;65284;51.040;13.722;2023-08-12T05:35:12;100140.97;;;18.80;74.85
76448;BME280;65284;51.040;13.722;2023-08-12T05:37:39;100137.84;;;18.83;74.24
76448;BME280;65284;51.040;13.722;2023-08-12T05:40:07;100141.38;;;18.90;74.47
76448;BME280;65284;51.040;13.722;2023-08-12T05:42:35;100138.41;;;18.98;73.98
76448;BME280;65284;51.040;13.722;2023-08-12T05:45:02;100142.53;;;19.07;73.80
76448;BME280;65284;51.040;13.722;2023-08-12T05:47:32;100137.56;;;19.04;74.24
76448;BME280;65284;51.040;13.722;2023-08-12T05:49:59;100140.88;;;19.06;74.49
76448;BME280;65284;51.040;13.722;2023-08-12T05:52:26;100142.09;;;19.10;74.02
76448;BME280;65284;51.040;13.722;2023-08-12T05:54:52;100145.56;;;19.24;73.48
76448;BME280;65284;51.040;13.722;2023-08-12T05:57:19;100134.16;;;19.29;73.44
76448;BME280;65284;51.040;13.722;2023-08-12T05:59:45;100128.34;;;19.25;73.33
76448;BME280;65284;51.040;13.722;2023-08-12T06:02:12;100131.28;;;19.24;73.38
76448;BME280;65284;51.040;13.722;2023-08-12T06:04:39;100127.09;;;19.28;73.12
76448;BME280;65284;51.040;13.722;2023-08-12T06:07:05;100119.22;;;19.33;73.33
76448;BME280;65284;51.040;13.722;2023-08-12T06:09:31;100131.81;;;19.39;73.32
76448;BME280;65284;51.040;13.722;2023-08-12T06:11:58;100128.69;;;19.42;73.35
76448;BME280;65284;51.040;13.722;2023-08-12T06:14:24;100126.13;;;19.54;73.11
76448;BME280;65284;51.040;13.722;2023-08-12T06:16:51;100122.56;;;19.60;72.74
76448;BME280;65284;51.040;13.722;2023-08-12T06:19:17;100126.66;;;19.76;72.16
76448;BME280;65284;51.040;13.722;2023-08-12T06:21:44;100121.41;;;19.81;72.81
76448;BME280;65284;51.040;13.722;2023-08-12T06:24:10;100121.78;;;19.91;72.30
76448;BME280;65284;51.040;13.722;2023-08-12T06:26:37;100117.59;;;19.95;71.93
76448;BME280;65284;51.040;13.722;2023-08-12T06:29:03;100119.56;;;20.07;71.37
76448;BME280;65284;51.040;13.722;2023-08-12T06:31:31;100112.22;;;20.14;71.03
76448;BME280;65284;51.040;13.722;2023-08-12T06:33:58;100107.34;;;20.29;70.70
76448;BME280;65284;51.040;13.722;2023-08-12T06:36:25;100113.94;;;20.33;70.95
76448;BME280;65284;51.040;13.722;2023-08-12T06:38:52;100110.50;;;20.26;71.20
76448;BME280;65284;51.040;13.722;2023-08-12T06:41:18;100111.50;;;20.25;70.95
76448;BME280;65284;51.040;13.722;2023-08-12T06:43:45;100113.28;;;20.13;71.13
76448;BME280;65284;51.040;13.722;2023-08-12T06:46:11;100111.22;;;20.15;71.42
76448;BME280;65284;51.040;13.722;2023-08-12T06:48:38;100112.84;;;20.16;71.35
76448;BME280;65284;51.040;13.722;2023-08-12T06:51:04;100115.66;;;20.28;71.07
76448;BME280;65284;51.040;13.722;2023-08-12T06:53:38;100107.78;;;20.26;71.17
76448;BME280;65284;51.040;13.722;2023-08-12T06:56:05;100115.56;;;20.34;71.21
76448;BME280;65284;51.040;13.722;2023-08-12T06:58:31;100105.03;;;20.51;70.79
76448;BME280;65284;51.040;13.722;2023-08-12T07:00:58;100103.34;;;20.57;70.95
76448;BME280;65284;51.040;13.722;2023-08-12T07:03:25;100110.38;;;20.58;70.73
76448;BME280;65284;51.040;13.722;2023-08-12T07:05:53;100103.66;;;20.67;70.60
76448;BME280;65284;51.040;13.722;2023-08-12T07:08:20;100106.91;;;21.06;68.68
76448;BME280;65284;51.040;13.722;2023-08-12T07:10:46;100107.41;;;21.33;67.60
76448;BME280;65284;51.040;13.722;2023-08-12T07:13:13;100115.59;;;21.45;67.99
76448;BME280;65284;51.040;13.722;2023-08-12T07:15:39;100116.75;;;21.19;68.84
76448;BME280;65284;51.040;13.722;2023-08-12T07:18:06;100103.53;;;21.10;69.13
76448;BME280;65284;51.040;13.722;2023-08-12T07:20:32;100114.81;;;21.07;69.28
76448;BME280;65284;51.040;13.722;2023-08-12T07:22:59;100101.09;;;21.09;69.71
76448;BME280;65284;51.040;13.722;2023-08-12T07:25:25;100103.34;;;21.12;70.01
76448;BME280;65284;51.040;13.722;2023-08-12T07:27:52;100104.41;;;21.23;69.49
76448;BME280;65284;51.040;13.722;2023-08-12T07:30:18;100102.31;;;21.25;69.30
76448;BME280;65284;51.040;13.722;2023-08-12T07:32:45;100101.75;;;21.34;69.46
76448;BME280;65284;51.040;13.722;2023-08-12T07:35:11;100095.16;;;21.49;68.70
76448;BME280;65284;51.040;13.722;2023-08-12T07:37:38;100091.84;;;21.47;69.39
76448;BME280;65284;51.040;13.722;2023-08-12T07:40:04;100090.59;;;21.61;69.07
76448;BME280;65284;51.040;13.722;2023-08-12T07:42:31;100095.09;;;21.79;68.21
76448;BME280;65284;51.040;13.722;2023-08-12T07:44:58;100097.34;;;21.94;67.68
76448;BME280;65284;51.040;13.722;2023-08-12T07:47:24;100090.78;;;22.13;67.79
76448;BME280;65284;51.040;13.722;2023-08-12T07:49:51;100090.56;;;22.26;66.62
76448;BME280;65284;51.040;13.722;2023-08-12T07:52:17;100091.53;;;22.32;67.07
76448;BME280;65284;51.040;13.722;2023-08-12T07:54:44;100097.06;;;22.37;67.21
76448;BME280;65284;51.040;13.722;2023-08-12T07:57:10;100095.75;;;22.40;67.18
76448;BME280;65284;51.040;13.722;2023-08-12T07:59:37;100087.03;;;22.61;66.74
76448;BME280;65284;51.040;13.722;2023-08-12T08:02:03;100087.22;;;22.71;65.69
76448;BME280;65284;51.040;13.722;2023-08-12T08:04:30;100082.66;;;22.72;66.55
76448;BME280;65284;51.040;13.722;2023-08-12T08:06:56;100081.69;;;22.78;66.04
76448;BME280;65284;51.040;13.722;2023-08-12T08:09:22;100086.38;;;22.83;66.09
76448;BME280;65284;51.040;13.722;2023-08-12T08:11:49;100082.72;;;22.89;66.39
76448;BME280;65284;51.040;13.722;2023-08-12T08:14:15;100090.34;;;23.04;65.93
76448;BME280;65284;51.040;13.722;2023-08-12T08:16:42;100062.78;;;23.07;65.88
76448;BME280;65284;51.040;13.722;2023-08-12T08:19:08;100063.78;;;23.17;65.49
76448;BME280;65284;51.040;13.722;2023-08-12T08:21:38;100064.94;;;23.22;65.25
76448;BME280;65284;51.040;13.722;2023-08-12T08:24:05;100059.63;;;23.27;66.08
76448;BME280;65284;51.040;13.722;2023-08-12T08:26:32;100060.09;;;23.52;65.57
76448;BME280;65284;51.040;13.722;2023-08-12T08:28:58;100061.22;;;23.56;65.24
76448;BME280;65284;51.040;13.722;2023-08-12T08:31:25;100066.16;;;23.59;65.13
76448;BME280;65284;51.040;13.722;2023-08-12T08:33:51;100070.28;;;23.62;65.30
76448;BME280;65284;51.040;13.722;2023-08-12T08:36:18;100076.03;;;23.66;64.86
76448;BME280;65284;51.040;13.722;2023-08-12T08:38:44;100069.56;;;23.67;65.11
76448;BME280;65284;51.040;13.722;2023-08-12T08:41:12;100066.84;;;23.67;64.82
76448;BME280;65284;51.040;13.722;2023-08-12T08:43:41;100069.16;;;23.75;64.84
76448;BME280;65284;51.040;13.722;2023-08-12T08:46:14;100060.47;;;23.73;64.81
76448;BME280;65284;51.040;13.722;2023-08-12T08:48:46;100057.16;;;23.71;64.67
76448;BME280;65284;51.040;13.722;2023-08-12T08:51:13;100061.28;;;23.73;64.60
76448;BME280;65284;51.040;13.722;2023-08-12T08:53:42;100060.03;;;23.81;64.82
76448;BME280;65284;51.040;13.722;2023-08-12T08:56:10;100057.50;;;23.91;64.87
76448;BME280;65284;51.040;13.722;2023-08-12T08:58:41;100056.59;;;24.02;63.71
76448;BME280;65284;51.040;13.722;2023-08-12T09:01:20;100049.06;;;24.26;63.60
76448;BME280;65284;51.040;13.722;2023-08-12T09:03:50;100061.38;;;24.34;63.54
76448;BME280;65284;51.040;13.722;2023-08-12T09:06:21;100054.63;;;24.37;63.44
76448;BME280;65284;51.040;13.722;2023-08-12T09:08:54;100055.03;;;24.45;63.56
76448;BME280;65284;51.040;13.722;2023-08-12T09:11:21;100043.13;;;24.46;63.17
76448;BME280;65284;51.040;13.722;2023-08-12T09:13:47;100040.53;;;24.57;62.50
76448;BME280;65284;51.040;13.722;2023-08-12T09:16:15;100042.53;;;24.66;62.11
76448;BME280;65284;51.040;13.722;2023-08-12T09:18:42;100039.59;;;24.68;61.70
76448;BME280;65284;51.040;13.722;2023-08-12T09:21:09;100032.63;;;24.77;60.95
76448;BME280;65284;51.040;13.722;2023-08-12T09:23:37;100036.97;;;24.78;61.08
76448;BME280;65284;51.040;13.722;2023-08-12T09:26:12;100035.50;;;24.92;60.61
76448;BME280;65284;51.040;13.722;2023-08-12T09:28:44;100032.53;;;25.16;59.69
76448;BME280;65284;51.040;13.722;2023-08-12T09:31:25;100020.69;;;25.27;58.51
76448;BME280;65284;51.040;13.722;2023-08-12T09:33:53;100023.44;;;25.32;57.30
76448;BME280;65284;51.040;13.722;2023-08-12T09:36:23;100016.00;;;25.50;56.34
76448;BME280;65284;51.040;13.722;2023-08-12T09:38:52;100014.97;;;25.61;55.89
76448;BME280;65284;51.040;13.722;2023-08-12T09:41:24;100014.63;;;25.84;54.74
76448;BME280;65284;51.040;13.722;2023-08-12T09:43:51;100003.84;;;26.00;53.09
76448;BME280;65284;51.040;13.722;2023-08-12T09:46:21;100016.47;;;26.16;52.18
76448;BME280;65284;51.040;13.722;2023-08-12T09:48:49;100013.28;;;26.35;51.84
76448;BME280;65284;51.040;13.722;2023-08-12T09:51:19;100007.91;;;26.45;48.48
76448;BME280;65284;51.040;13.722;2023-08-12T09:53:47;100009.09;;;26.59;48.24
76448;BME280;65284;51.040;13.722;2023-08-12T09:56:19;100013.94;;;26.52;47.97
76448;BME280;65284;51.040;13.722;2023-08-12T09:58:48;100012.94;;;26.68;46.91
76448;BME280;65284;51.040;13.722;2023-08-12T10:01:18;100009.38;;;26.63;46.65
76448;BME280;65284;51.040;13.722;2023-08-12T10:03:51;100018.41;;;26.78;45.25
76448;BME280;65284;51.040;13.722;2023-08-12T10:06:28;100018.19;;;26.95;43.61
76448;BME280;65284;51.040;13.722;2023-08-12T10:08:56;100002.38;;;26.92;44.15
76448;BME280;65284;51.040;13.722;2023-08-12T10:11:24;100015.72;;;26.94;44.02
76448;BME280;65284;51.040;13.722;2023-08-12T10:13:54;100007.81;;;26.92;44.27
76448;BME280;65284;51.040;13.722;2023-08-12T10:16:22;100003.72;;;27.00;44.14
76448;BME280;65284;51.040;13.722;2023-08-12T10:18:49;100000.44;;;26.93;43.83
76448;BME280;65284;51.040;13.722;2023-08-12T10:21:20;100007.81;;;26.92;44.04
76448;BME280;65284;51.040;13.722;2023-08-12T10:23:47;99999.91;;;26.91;44.77
76448;BME280;65284;51.040;13.722;2023-08-12T10:26:15;100002.34;;;26.97;44.70
76448;BME280;65284;51.040;13.722;2023-08-12T10:28:42;100004.81;;;26.94;44.34
76448;BME280;65284;51.040;13.722;2023-08-12T10:31:11;100001.25;;;26.88;44.54
76448;BME280;65284;51.040;13.722;2023-08-12T10:33:38;99993.91;;;26.94;44.27
76448;BME280;65284;51.040;13.722;2023-08-12T10:36:05;99996.91;;;26.92;45.22
76448;BME280;65284;51.040;13.722;2023-08-12T10:38:32;99998.75;;;26.76;44.56
76448;BME280;65284;51.040;13.722;2023-08-12T10:41:22;99994.44;;;26.91;44.14
76448;BME280;65284;51.040;13.722;2023-08-12T10:44:01;99997.72;;;26.93;44.86
76448;BME280;65284;51.040;13.722;2023-08-12T10:49:03;99985.44;;;26.90;45.85
76448;BME280;65284;51.040;13.722;2023-08-12T10:51:52;99975.38;;;26.96;45.50
76448;BME280;65284;51.040;13.722;2023-08-12T10:54:27;99983.56;;;27.01;46.12
76448;BME280;65284;51.040;13.722;2023-08-12T11:04:52;99965.59;;;27.10;44.84
76448;BME280;65284;51.040;13.722;2023-08-12T11:07:20;99970.47;;;27.03;44.90
76448;BME280;65284;51.040;13.722;2023-08-12T11:09:52;99955.81;;;27.25;44.68
76448;BME280;65284;51.040;13.722;2023-08-12T11:12:30;99963.44;;;27.22;45.33
76448;BME280;65284;51.040;13.722;2023-08-12T11:14:58;99970.00;;;27.37;45.50
76448;BME280;65284;51.040;13.722;2023-08-12T11:17:32;99973.81;;;27.31;45.53
76448;BME280;65284;51.040;13.722;2023-08-12T11:19:59;99966.69;;;27.30;45.38
76448;BME280;65284;51.040;13.722;2023-08-12T11:22:26;99968.34;;;27.36;45.84
76448;BME280;65284;51.040;13.722;2023-08-12T11:24:53;99972.44;;;27.49;45.73
76448;BME280;65284;51.040;13.722;2023-08-12T11:27:21;99970.53;;;27.54;46.51
76448;BME280;65284;51.040;13.722;2023-08-12T11:29:51;99963.41;;;27.53;46.60
76448;BME280;65284;51.040;13.722;2023-08-12T11:32:19;99963.13;;;27.65;45.97
76448;BME280;65284;51.040;13.722;2023-08-12T11:34:45;99962.34;;;27.39;46.50
76448;BME280;65284;51.040;13.722;2023-08-12T11:37:12;99954.16;;;27.54;46.16
76448;BME280;65284;51.040;13.722;2023-08-12T11:39:38;99962.88;;;27.36;45.73
76448;BME280;65284;51.040;13.722;2023-08-12T11:42:05;99957.97;;;27.33;46.34
76448;BME280;65284;51.040;13.722;2023-08-12T11:44:31;99952.81;;;27.26;45.64
76448;BME280;65284;51.040;13.722;2023-08-12T11:46:57;99945.44;;;27.42;45.85
76448;BME280;65284;51.040;13.722;2023-08-12T11:49:24;99951.97;;;27.36;45.86
76448;BME280;65284;51.040;13.722;2023-08-12T11:51:50;99940.53;;;27.29;46.94
76448;BME280;65284;51.040;13.722;2023-08-12T11:54:18;99944.34;;;27.38;45.71
76448;BME280;65284;51.040;13.722;2023-08-12T11:56:44;99942.69;;;27.52;45.01
76448;BME280;65284;51.040;13.722;2023-08-12T11:59:11;99945.44;;;27.52;45.97
76448;BME280;65284;51.040;13.722;2023-08-12T12:01:37;99939.41;;;27.81;44.58
76448;BME280;65284;51.040;13.722;2023-08-12T12:04:04;99941.56;;;27.89;44.61
76448;BME280;65284;51.040;13.722;2023-08-12T12:06:37;99944.00;;;27.96;44.62
76448;BME280;65284;51.040;13.722;2023-08-12T12:09:08;99939.38;;;27.96;44.71
76448;BME280;65284;51.040;13.722;2023-08-12T12:11:36;99931.72;;;27.98;45.34
76448;BME280;65284;51.040;13.722;2023-08-12T12:14:03;99934.38;;;28.13;44.77
76448;BME280;65284;51.040;13.722;2023-08-12T12:16:40;99935.50;;;28.07;43.94
76448;BME280;65284;51.040;13.722;2023-08-12T12:19:23;99935.50;;;28.07;43.89
76448;BME280;65284;51.040;13.722;2023-08-12T12:21:51;99939.59;;;28.05;44.15
76448;BME280;65284;51.040;13.722;2023-08-12T12:24:18;99933.03;;;28.16;43.73
76448;BME280;65284;51.040;13.722;2023-08-12T12:26:45;99932.47;;;28.19;44.28
76448;BME280;65284;51.040;13.722;2023-08-12T12:29:19;99932.69;;;28.28;44.23
76448;BME280;65284;51.040;13.722;2023-08-12T12:31:45;99933.78;;;28.27;45.04
76448;BME280;65284;51.040;13.722;2023-08-12T12:34:12;99928.25;;;28.47;44.23
76448;BME280;65284;51.040;13.722;2023-08-12T12:36:40;99928.25;;;28.42;44.03
76448;BME280;65284;51.040;13.722;2023-08-12T12:39:07;99926.78;;;28.60;44.01
76448;BME280;65284;51.040;13.722;2023-08-12T12:41:34;99932.91;;;28.47;43.54
76448;BME280;65284;51.040;13.722;2023-08-12T12:44:00;99934.75;;;28.56;44.08
76448;BME280;65284;51.040;13.722;2023-08-12T12:46:28;99928.69;;;28.65;43.37
76448;BME280;65284;51.040;13.722;2023-08-12T12:48:55;99920.41;;;28.75;42.78
76448;BME280;65284;51.040;13.722;2023-08-12T12:51:21;99917.69;;;28.75;42.56
76448;BME280;65284;51.040;13.722;2023-08-12T12:53:48;99912.28;;;28.70;44.33
76448;BME280;65284;51.040;13.722;2023-08-12T12:56:14;99914.75;;;28.66;43.61
76448;BME280;65284;51.040;13.722;2023-08-12T12:58:41;99908.72;;;28.69;43.70